Terminal Aerodrome Forecast
Issued by NWS

Home | Current Version | Previous Version | Text Only | Print | Product List | Glossary On
Versions: 1 2 3 4 5 6 7 8 9 10 11 12 13 14 15 16 17 18 19 20 21 22 23 24
000
FTUS41 KBOX 271728
TAFHYA
TAF
KHYA 271728Z 2718/2818 21016G21KT P6SM SKC
     FM280300 24008KT 3SM BR SCT200
     FM280900 30008KT 3SM BR BKN050
     FM281100 34009KT 3SM BR SCT110
     FM281200 35009KT P6SM SCT110=

USA.gov is the U.S. government's official web portal to all federal, state and local government web resources and services.